createdAt,value
2018-05-15T00:01:54.374Z,6.10
2018-05-15T00:04:57.601Z,6.13
2018-05-15T00:08:00.049Z,5.87
2018-05-15T00:11:03.269Z,5.60
2018-05-15T00:14:05.727Z,5.87
2018-05-15T00:17:08.943Z,5.80
2018-05-15T00:20:11.393Z,5.47
2018-05-15T00:23:14.613Z,5.87
2018-05-15T00:26:17.061Z,5.57
2018-05-15T00:29:20.278Z,5.80
2018-05-15T00:32:22.738Z,5.37
2018-05-15T00:35:25.198Z,5.10
2018-05-15T00:38:27.649Z,6.17
2018-05-15T00:41:30.098Z,5.57
2018-05-15T00:44:32.549Z,6.13
2018-05-15T00:47:35.011Z,5.77
2018-05-15T00:50:38.239Z,6.00
2018-05-15T00:53:40.690Z,5.93
2018-05-15T00:56:43.134Z,5.80
2018-05-15T00:59:45.587Z,5.17
2018-05-15T01:02:48.039Z,5.70
2018-05-15T01:05:50.498Z,6.10
2018-05-15T01:08:53.725Z,5.57
2018-05-15T01:11:56.171Z,5.63
2018-05-15T01:14:59.386Z,5.67
2018-05-15T01:18:01.838Z,5.70
2018-05-15T01:21:04.294Z,5.60
2018-05-15T01:24:06.750Z,5.60
2018-05-15T01:27:09.204Z,5.30
2018-05-15T01:30:11.666Z,6.00
2018-05-15T01:33:14.113Z,5.70
2018-05-15T01:36:17.334Z,5.93
2018-05-15T01:39:19.798Z,6.27
2018-05-15T01:42:22.241Z,6.67
2018-05-15T01:45:24.697Z,5.83
2018-05-15T01:48:27.158Z,6.37
2018-05-15T01:51:29.601Z,5.63
2018-05-15T01:54:32.833Z,6.20
2018-05-15T01:57:35.269Z,5.83
2018-05-15T02:00:38.493Z,6.07
2018-05-15T02:03:40.953Z,6.87
2018-05-15T02:06:43.414Z,6.03
2018-05-15T02:09:46.638Z,6.67
2018-05-15T02:12:49.082Z,6.60
2018-05-15T02:15:52.314Z,6.20
2018-05-15T02:18:54.782Z,7.30
2018-05-15T02:21:57.225Z,6.97
2018-05-15T02:25:00.442Z,6.47
2018-05-15T02:28:02.885Z,6.67
2018-05-15T02:31:05.345Z,5.93
2018-05-15T02:34:07.806Z,10.20
2018-05-15T02:37:10.248Z,7.40
2018-05-15T02:40:12.703Z,7.53
2018-05-15T02:43:15.142Z,6.10
2018-05-15T02:46:17.613Z,6.07
2018-05-15T02:49:20.070Z,5.90
2018-05-15T02:52:22.526Z,6.13
2018-05-15T02:55:24.994Z,6.60
2018-05-15T02:58:28.206Z,6.50
2018-05-15T03:01:30.658Z,6.70
2018-05-15T03:04:33.887Z,6.23
2018-05-15T03:07:36.333Z,6.43
2018-05-15T03:10:39.556Z,6.33
2018-05-15T03:13:42.007Z,5.87
2018-05-15T03:16:45.225Z,6.60
2018-05-15T03:19:47.679Z,6.93
2018-05-15T03:22:50.890Z,6.50
2018-05-15T03:25:53.350Z,6.80
2018-05-15T03:28:56.574Z,6.63
2018-05-15T03:31:59.034Z,6.40
2018-05-15T03:35:01.503Z,6.47
2018-05-15T03:38:03.958Z,6.63
2018-05-15T03:41:06.409Z,6.83
2018-05-15T03:44:08.863Z,6.47
2018-05-15T03:47:11.326Z,7.23
2018-05-15T03:50:13.775Z,7.20
2018-05-15T03:53:16.993Z,7.40
2018-05-15T03:56:19.470Z,7.43
2018-05-15T03:59:21.913Z,7.20
2018-05-15T04:02:36.305Z,7.13
2018-05-15T04:05:50.731Z,7.10
2018-05-15T04:08:53.991Z,7.33
2018-05-15T04:11:56.446Z,7.20
2018-05-15T04:14:58.885Z,7.00
2018-05-15T04:18:02.115Z,6.90
2018-05-15T04:21:04.578Z,6.80
2018-05-15T04:24:07.026Z,7.23
2018-05-15T04:27:10.250Z,6.50
2018-05-15T04:30:12.695Z,7.20
2018-05-15T04:33:15.146Z,7.00
2018-05-15T04:36:17.601Z,6.87
2018-05-15T04:39:20.046Z,7.10
2018-05-15T04:42:22.499Z,6.93
2018-05-15T04:45:24.950Z,6.60
2018-05-15T04:48:27.511Z,6.43
2018-05-15T04:51:29.982Z,6.57
2018-05-15T04:54:32.422Z,7.50
2018-05-15T04:57:35.645Z,6.83
2018-05-15T05:00:38.099Z,6.83
2018-05-15T05:03:41.322Z,6.90
2018-05-15T05:06:43.786Z,6.50
2018-05-15T05:09:46.227Z,6.87
2018-05-15T05:12:50.189Z,6.47
2018-05-15T05:15:52.643Z,6.50
2018-05-15T05:18:55.098Z,6.40
2018-05-15T05:21:58.322Z,6.50
2018-05-15T05:25:00.769Z,5.93
2018-05-15T05:28:04.002Z,6.00
2018-05-15T05:31:06.449Z,6.13
2018-05-15T05:34:09.670Z,5.50
2018-05-15T05:37:12.144Z,5.47
2018-05-15T05:40:14.678Z,5.63
2018-05-15T05:43:17.026Z,5.07
2018-05-15T05:46:19.513Z,5.10
2018-05-15T05:49:23.321Z,4.80
2018-05-15T05:52:25.770Z,5.23
2018-05-15T05:55:28.222Z,4.90
2018-05-15T05:58:30.679Z,4.70
2018-05-15T06:01:33.123Z,4.90
2018-05-15T06:04:35.582Z,4.90
2018-05-15T06:07:38.046Z,4.80
2018-05-15T06:10:40.488Z,5.37
2018-05-15T06:13:43.705Z,5.50
2018-05-15T06:16:46.157Z,5.30
2018-05-15T06:19:49.378Z,5.13
2018-05-15T06:26:27.017Z,4.73
2018-05-15T06:29:29.479Z,5.27
2018-05-15T06:32:32.044Z,5.00
2018-05-15T06:35:34.398Z,5.10
2018-05-15T06:38:37.789Z,5.00
2018-05-15T06:41:40.162Z,4.90
2018-05-15T06:44:43.422Z,4.50
2018-05-15T06:47:45.864Z,5.13
2018-05-15T06:50:48.309Z,4.85
2018-05-15T06:53:50.770Z,4.28
2018-05-15T06:56:53.222Z,4.60
2018-05-15T06:59:55.681Z,4.43
2018-05-15T07:02:58.130Z,4.53
2018-05-15T07:06:01.362Z,4.67
2018-05-15T07:09:03.817Z,4.47
2018-05-15T07:12:06.258Z,4.53
2018-05-15T07:15:08.709Z,4.78
2018-05-15T07:18:11.158Z,4.78
2018-05-15T07:21:13.624Z,4.40
2018-05-15T07:24:16.090Z,4.50
2018-05-15T07:27:19.379Z,4.28
2018-05-15T07:30:21.748Z,4.73
2018-05-15T07:33:24.505Z,4.30
2018-05-15T07:36:26.957Z,4.40
2018-05-15T07:39:29.416Z,4.30
2018-05-15T07:42:31.862Z,4.83
2018-05-15T07:45:53.758Z,4.77
2018-05-15T07:48:56.324Z,4.63
2018-05-15T07:51:58.764Z,4.57
2018-05-15T07:55:01.982Z,4.50
2018-05-15T07:58:04.430Z,4.67
2018-05-15T08:01:07.653Z,4.63
2018-05-15T08:04:10.118Z,5.20
2018-05-15T08:07:12.566Z,4.80
2018-05-15T08:10:15.021Z,5.30
2018-05-15T08:13:17.486Z,5.33
2018-05-15T08:16:20.004Z,5.20
2018-05-15T08:19:22.414Z,5.43
2018-05-15T08:22:24.934Z,4.93
2018-05-15T08:25:28.081Z,5.17
2018-05-15T08:28:30.529Z,5.60
2018-05-15T08:31:32.985Z,5.47
2018-05-15T08:34:35.454Z,5.87
2018-05-15T08:37:37.953Z,6.30
2018-05-15T08:40:40.357Z,6.60
2018-05-15T08:43:42.797Z,6.57
2018-05-15T08:46:45.258Z,7.00
2018-05-15T08:49:47.725Z,7.23
2018-05-15T08:52:50.165Z,6.70
2018-05-15T08:55:52.627Z,7.20
2018-05-15T08:58:55.071Z,7.27
2018-05-15T09:01:57.530Z,7.43
2018-05-15T09:04:59.995Z,6.87
2018-05-15T09:08:02.445Z,7.43
2018-05-15T09:11:04.910Z,7.50
2018-05-15T09:14:08.118Z,7.17
2018-05-15T09:17:10.590Z,7.03
2018-05-15T09:20:13.049Z,7.30
2018-05-15T09:23:16.262Z,7.20
2018-05-15T09:26:18.722Z,7.53
2018-05-15T09:29:21.976Z,6.43
2018-05-15T09:32:24.391Z,6.63
2018-05-15T09:35:27.599Z,5.93
2018-05-15T09:38:30.069Z,6.13
2018-05-15T09:41:33.294Z,5.93
2018-05-15T09:44:35.758Z,6.40
2018-05-15T09:47:38.210Z,5.70
2018-05-15T09:50:40.649Z,6.00
2018-05-15T09:53:43.110Z,6.20
2018-05-15T09:56:45.571Z,6.50
2018-05-15T09:59:48.014Z,5.80
2018-05-15T10:02:51.237Z,5.97
2018-05-15T10:05:53.687Z,6.07
2018-05-15T10:08:56.146Z,5.20
2018-05-15T10:11:59.371Z,6.00
2018-05-15T10:15:01.822Z,6.20
2018-05-15T10:18:04.286Z,5.90
2018-05-15T10:21:06.735Z,5.97
2018-05-15T10:24:09.186Z,6.10
2018-05-15T10:27:11.641Z,5.73
2018-05-15T10:30:14.861Z,6.17
2018-05-15T10:33:17.314Z,5.97
2018-05-15T10:36:20.530Z,6.10
2018-05-15T10:39:23.024Z,6.37
2018-05-15T10:42:25.475Z,6.00
2018-05-15T10:45:27.918Z,6.47
2018-05-15T10:48:36.102Z,6.37
2018-05-15T10:51:38.551Z,8.37
2018-05-15T10:54:41.017Z,6.57
2018-05-15T10:57:43.475Z,6.40
2018-05-15T11:00:46.688Z,6.07
2018-05-15T11:03:49.150Z,6.03
2018-05-15T11:06:52.349Z,6.63
2018-05-15T11:09:54.802Z,6.80
2018-05-15T11:12:57.262Z,6.33
2018-05-15T11:15:59.712Z,6.13
2018-05-15T11:19:14.009Z,6.37
2018-05-15T11:22:28.443Z,6.50
2018-05-15T11:25:30.885Z,6.60
2018-05-15T11:28:33.354Z,5.87
2018-05-15T11:31:35.793Z,6.70
2018-05-15T11:34:38.250Z,6.10
2018-05-15T11:37:40.705Z,7.03
2018-05-15T11:40:43.150Z,7.10
2018-05-15T11:43:45.607Z,6.83
2018-05-15T11:46:48.050Z,6.63
2018-05-15T11:49:51.153Z,7.47
2018-05-15T11:52:53.611Z,6.37
2018-05-15T11:55:55.471Z,7.13
2018-05-15T11:58:57.858Z,7.53
2018-05-15T12:02:00.306Z,7.60
2018-05-15T12:05:02.770Z,7.57
2018-05-15T12:08:05.331Z,7.70
2018-05-15T12:11:08.443Z,7.27
2018-05-15T12:17:52.625Z,7.70
2018-05-15T12:20:55.078Z,7.43
2018-05-15T12:23:58.302Z,7.17
2018-05-15T12:27:00.745Z,7.17
2018-05-15T12:30:16.865Z,7.23
2018-05-15T12:33:39.392Z,6.87
2018-05-15T12:36:41.834Z,6.80
2018-05-15T12:43:26.071Z,6.20
2018-05-15T12:46:30.444Z,4.90
2018-05-15T12:49:32.907Z,5.13
2018-05-15T12:52:38.770Z,5.47
2018-05-15T12:55:51.798Z,5.43
2018-05-15T12:58:54.251Z,5.73
2018-05-15T13:02:00.542Z,5.80
2018-05-15T13:05:03.158Z,6.00
2018-05-15T13:08:05.608Z,5.93
2018-05-15T13:11:08.070Z,6.40
2018-05-15T13:14:10.525Z,5.97
2018-05-15T13:17:12.966Z,6.40
2018-05-15T13:20:15.425Z,6.80
2018-05-15T13:23:18.637Z,6.23
2018-05-15T13:26:21.098Z,6.27
2018-05-15T13:29:33.666Z,6.23
2018-05-15T13:32:36.105Z,5.87
2018-05-15T13:35:38.576Z,6.17
2018-05-15T13:38:41.026Z,6.10
2018-05-15T13:41:44.249Z,6.27
2018-05-15T13:44:46.702Z,7.20
2018-05-15T13:47:49.922Z,5.97
2018-05-15T13:50:52.382Z,6.50
2018-05-15T13:53:55.618Z,6.03
2018-05-15T13:56:58.067Z,6.20
2018-05-15T14:00:00.517Z,5.63
2018-05-15T14:03:02.962Z,5.07
2018-05-15T14:06:05.413Z,5.33
2018-05-15T14:09:07.860Z,6.17
2018-05-15T14:12:11.083Z,6.07
2018-05-15T14:15:13.549Z,6.33
2018-05-15T14:18:15.989Z,5.57
2018-05-15T14:21:18.450Z,5.97
2018-05-15T14:24:20.900Z,6.10
2018-05-15T14:27:23.370Z,5.90
2018-05-15T14:30:25.832Z,5.47
2018-05-15T14:33:28.269Z,5.87
2018-05-15T14:36:30.725Z,5.50
2018-05-15T14:39:33.166Z,6.30
2018-05-15T14:42:47.638Z,5.60
2018-05-15T14:45:50.095Z,5.67
2018-05-15T14:48:52.546Z,5.67
2018-05-15T14:51:55.771Z,5.60
2018-05-15T14:54:58.235Z,5.80
2018-05-15T14:58:00.677Z,5.40
2018-05-15T15:01:03.129Z,6.07
2018-05-15T15:04:05.597Z,5.97
2018-05-15T15:07:08.050Z,6.80
2018-05-15T15:10:10.529Z,5.90
2018-05-15T15:13:12.979Z,5.70
2018-05-15T15:16:16.201Z,6.50
2018-05-15T15:19:18.654Z,6.17
2018-05-15T15:22:21.875Z,5.77
2018-05-15T15:25:24.317Z,5.93
2018-05-15T15:28:27.638Z,6.03
2018-05-15T15:31:29.982Z,6.07
2018-05-15T15:34:33.199Z,6.40
2018-05-15T15:37:35.649Z,6.43
2018-05-15T15:40:38.094Z,5.83
2018-05-15T15:43:40.594Z,5.80
2018-05-15T15:46:43.014Z,5.60
2018-05-15T15:49:45.474Z,5.77
2018-05-15T15:52:48.693Z,5.27
2018-05-15T15:55:51.153Z,5.13
2018-05-15T15:58:53.594Z,5.47
2018-05-15T16:01:56.042Z,5.53
2018-05-15T16:04:58.496Z,6.00
2018-05-15T16:08:00.942Z,5.53
2018-05-15T16:11:04.153Z,5.87
2018-05-15T16:14:06.606Z,5.30
2018-05-15T16:17:09.818Z,5.00
2018-05-15T16:20:12.355Z,5.57
2018-05-15T16:23:14.721Z,5.50
2018-05-15T16:26:17.161Z,5.20
2018-05-15T16:29:19.618Z,5.00
2018-05-15T16:32:22.842Z,4.97
2018-05-15T16:35:25.290Z,5.77
2018-05-15T16:38:28.510Z,5.30
2018-05-15T16:41:30.959Z,5.77
2018-05-15T16:44:34.174Z,5.30
2018-05-15T16:47:36.634Z,5.90
2018-05-15T16:50:39.847Z,5.67
2018-05-15T16:53:42.298Z,5.60
2018-05-15T16:56:44.742Z,5.50
2018-05-15T16:59:47.193Z,6.00
2018-05-15T17:02:49.643Z,6.20
2018-05-15T17:05:52.086Z,7.03
2018-05-15T17:08:54.538Z,6.33
2018-05-15T17:11:56.980Z,5.87
2018-05-15T17:14:59.426Z,5.80
2018-05-15T17:18:01.878Z,6.70
2018-05-15T17:21:04.330Z,8.07
2018-05-15T17:24:06.793Z,6.50
2018-05-15T17:27:09.232Z,6.40
2018-05-15T17:30:12.451Z,5.70
2018-05-15T17:33:14.901Z,6.97
2018-05-15T17:36:18.122Z,6.47
2018-05-15T17:39:20.577Z,5.93
2018-05-15T17:42:23.785Z,5.70
2018-05-15T17:45:31.562Z,5.87
2018-05-15T17:48:34.021Z,6.17
2018-05-15T17:51:36.579Z,6.30
2018-05-15T17:54:39.029Z,5.60
2018-05-15T17:57:41.477Z,5.80
2018-05-15T18:00:43.929Z,5.70
2018-05-15T18:03:46.393Z,5.67
2018-05-15T18:06:48.853Z,5.57
2018-05-15T18:09:51.298Z,5.20
2018-05-15T18:12:53.750Z,5.07
2018-05-15T18:15:56.211Z,4.97
2018-05-15T18:18:58.664Z,4.40
2018-05-15T18:22:01.108Z,4.20
2018-05-15T18:25:03.566Z,4.27
2018-05-15T18:28:06.009Z,3.80
2018-05-15T18:31:08.458Z,4.20
2018-05-15T18:34:10.919Z,4.17
2018-05-15T18:37:13.366Z,4.73
2018-05-15T18:40:15.821Z,4.13
2018-05-15T18:43:18.261Z,4.30
2018-05-15T18:46:20.701Z,4.90
2018-05-15T18:49:27.982Z,4.40
2018-05-15T18:52:53.966Z,4.50
2018-05-15T18:55:56.426Z,4.37
2018-05-15T18:58:58.873Z,4.63
2018-05-15T19:02:02.094Z,4.60
2018-05-15T19:05:04.545Z,5.13
2018-05-15T19:08:07.783Z,5.80
2018-05-15T19:11:27.330Z,5.60
2018-05-15T19:14:29.791Z,5.70
2018-05-15T19:17:33.015Z,5.97
2018-05-15T19:20:35.457Z,5.00
2018-05-15T19:23:38.685Z,5.27
2018-05-15T19:26:41.129Z,5.47
2018-05-15T19:29:44.352Z,5.23
2018-05-15T19:36:31.702Z,4.77
2018-05-15T19:39:34.173Z,5.20
2018-05-15T19:42:37.369Z,4.90
2018-05-15T19:45:39.826Z,5.33
2018-05-15T19:48:43.045Z,4.87
2018-05-15T19:51:45.530Z,4.80
2018-05-15T19:54:47.934Z,4.93
2018-05-15T19:57:50.383Z,5.43
2018-05-15T20:00:52.834Z,6.00
2018-05-15T20:03:56.054Z,6.20
2018-05-15T20:07:05.201Z,5.10
2018-05-15T20:10:13.457Z,5.60
2018-05-15T20:13:18.586Z,6.83
2018-05-15T20:16:21.049Z,6.40
2018-05-15T20:19:23.506Z,5.50
2018-05-15T20:22:25.951Z,5.57
2018-05-15T20:25:28.409Z,5.80
2018-05-15T20:28:31.665Z,5.93
2018-05-15T20:31:34.120Z,5.60
2018-05-15T20:34:36.575Z,5.93
2018-05-15T20:37:39.021Z,6.10
2018-05-15T20:40:41.478Z,5.43
2018-05-15T20:43:47.319Z,5.17
2018-05-15T20:46:49.801Z,5.80
2018-05-15T20:49:52.260Z,5.80
2018-05-15T20:52:54.697Z,5.50
2018-05-15T20:55:57.921Z,5.70
2018-05-15T20:59:00.393Z,5.70
2018-05-15T21:02:02.845Z,6.60
2018-05-15T21:05:06.068Z,6.60
2018-05-15T21:08:08.510Z,6.30
2018-05-15T21:11:11.739Z,5.70
2018-05-15T21:14:14.177Z,5.20
2018-05-15T21:17:17.402Z,5.37
2018-05-15T21:20:19.857Z,4.87
2018-05-15T21:23:23.082Z,5.33
2018-05-15T21:26:25.529Z,5.27
2018-05-15T21:29:28.745Z,5.70
2018-05-15T21:32:31.199Z,6.03
2018-05-15T21:35:33.653Z,6.30
2018-05-15T21:38:36.103Z,6.47
2018-05-15T21:41:38.562Z,8.07
2018-05-15T21:44:41.014Z,6.97
2018-05-15T21:47:44.237Z,7.20
2018-05-15T21:50:46.689Z,7.90
2018-05-15T21:53:49.144Z,7.07
2018-05-15T21:56:51.594Z,7.33
2018-05-15T21:59:54.038Z,7.93
2018-05-15T22:02:56.499Z,7.37
2018-05-15T22:05:58.948Z,7.07
2018-05-15T22:09:01.406Z,7.67
2018-05-15T22:12:15.842Z,7.13
2018-05-15T22:15:30.236Z,7.70
2018-05-15T22:18:44.606Z,7.40
2018-05-15T22:21:58.929Z,8.20
2018-05-15T22:25:01.377Z,8.53
2018-05-15T22:28:03.847Z,9.77
2018-05-15T22:31:06.310Z,11.67
2018-05-15T22:34:08.762Z,11.33
2018-05-15T22:37:11.998Z,10.37
2018-05-15T22:40:14.444Z,10.53
2018-05-15T22:43:17.674Z,10.90
2018-05-15T22:46:20.130Z,9.87
2018-05-15T22:49:22.573Z,9.27
2018-05-15T22:52:25.801Z,9.13
2018-05-15T22:55:28.249Z,9.30
2018-05-15T22:58:30.706Z,9.50
2018-05-15T23:01:33.169Z,10.00
2018-05-15T23:04:35.617Z,9.43
2018-05-15T23:07:53.350Z,8.63
2018-05-15T23:10:55.797Z,8.17
2018-05-15T23:13:59.029Z,9.10
2018-05-15T23:17:01.481Z,8.33
2018-05-15T23:20:03.925Z,9.20
2018-05-15T23:23:06.386Z,8.73
2018-05-15T23:26:08.825Z,7.93
2018-05-15T23:29:11.282Z,8.90
2018-05-15T23:32:14.501Z,8.87
2018-05-15T23:35:16.946Z,9.53
2018-05-15T23:38:20.176Z,9.60
2018-05-15T23:41:22.626Z,9.83
2018-05-15T23:44:25.850Z,9.60
2018-05-15T23:47:28.309Z,9.20
2018-05-15T23:50:30.758Z,9.63
2018-05-15T23:53:34.018Z,10.17
2018-05-15T23:56:36.470Z,10.07
2018-05-15T23:59:38.934Z,10.50
